Time;durP1;ratioP1;P1;durP2;ratioP2;P2;SDS_P1;SDS_P2;PMS_P1;PMS_P2;Temp;Humidity;BMP_temperature;BMP_pressure;BME280_temperature;BME280_humidity;BME280_pressure;Samples;Min_cycle;Max_cycle;Signal;HPM_P1;HPM_P2
2021/04/08 00:00:50;;;;;;;17.48;9.90;;;;;;;;;;5149930;27;20083;-63
2021/04/08 00:03:16;;;;;;;17.20;10.52;;;;;;;;;;5134221;27;20046;-62
2021/04/08 00:05:42;;;;;;;22.55;12.32;;;;;;;;;;5137102;27;20369;-62
2021/04/08 00:08:07;;;;;;;21.98;12.75;;;;;;;;;;5138031;27;20094;-63
2021/04/08 00:10:33;;;;;;;16.52;9.40;;;;;;;;;;5153731;27;20031;-63
2021/04/08 00:12:58;;;;;;;24.33;12.95;;;;;;;;;;5136374;27;20023;-63
2021/04/08 00:15:23;;;;;;;21.73;11.95;;;;;;;;;;5137563;27;20023;-63
2021/04/08 00:17:49;;;;;;;24.00;13.30;;;;;;;;;;5137346;27;20015;-61
2021/04/08 00:20:16;;;;;;;23.73;13.20;;;;;;;;;;5137504;27;20016;-61
2021/04/08 00:22:42;;;;;;;24.20;12.45;;;;;;;;;;5137557;27;20103;-61
2021/04/08 00:25:07;;;;;;;25.02;12.68;;;;;;;;;;5137222;27;20472;-61
2021/04/08 00:27:33;;;;;;;26.33;13.10;;;;;;;;;;5137222;27;20102;-61
2021/04/08 00:29:59;;;;;;;20.52;11.65;;;;;;;;;;5137333;27;20019;-63
2021/04/08 00:32:25;;;;;;;23.15;12.90;;;;;;;;;;5137334;27;20071;-63
2021/04/08 00:34:50;;;;;;;20.73;12.32;;;;;;;;;;5137315;27;20024;-63
2021/04/08 00:37:16;;;;;;;21.77;11.82;;;;;;;;;;5118674;27;20234;-62
2021/04/08 00:39:42;;;;;;;22.52;12.35;;;;;;;;;;5136922;27;20023;-62
2021/04/08 00:42:08;;;;;;;21.33;11.60;;;;;;;;;;5137138;27;20102;-62
2021/04/08 00:44:33;;;;;;;20.67;11.40;;;;;;;;;;5118920;27;20063;-63
2021/04/08 00:46:59;;;;;;;22.95;10.95;;;;;;;;;;5137085;27;20022;-62
2021/04/08 00:49:24;;;;;;;21.00;11.75;;;;;;;;;;5118771;27;20547;-62
2021/04/08 00:51:51;;;;;;;26.13;13.07;;;;;;;;;;5135573;27;20792;-62
2021/04/08 00:54:16;;;;;;;21.20;12.00;;;;;;;;;;5103604;28;20079;-62
2021/04/08 00:56:51;;;;;;;18.35;10.73;;;;;;;;;;5096082;28;20044;-64
2021/04/08 00:59:25;;;;;;;16.45;10.23;;;;;;;;;;5110534;28;20024;-63
2021/04/08 01:01:52;;;;;;;16.35;10.35;;;;;;;;;;5095769;28;20378;-64
2021/04/08 01:04:17;;;;;;;17.52;10.60;;;;;;;;;;5095722;28;20158;-64
2021/04/08 01:06:44;;;;;;;17.45;10.32;;;;;;;;;;5094614;28;20418;-64
2021/04/08 01:09:10;;;;;;;18.60;9.95;;;;;;;;;;5095447;28;20120;-64
2021/04/08 01:11:35;;;;;;;21.95;11.50;;;;;;;;;;5095776;28;20110;-64
2021/04/08 01:14:01;;;;;;;17.77;10.70;;;;;;;;;;5095685;28;20107;-64
2021/04/08 01:16:30;;;;;;;19.80;10.27;;;;;;;;;;5095156;28;20050;-63
2021/04/08 01:18:59;;;;;;;16.88;10.20;;;;;;;;;;5077481;28;20047;-63
2021/04/08 01:21:24;;;;;;;17.35;10.13;;;;;;;;;;5111214;28;20013;-63
2021/04/08 01:23:53;;;;;;;16.02;9.80;;;;;;;;;;5095401;28;20531;-63
2021/04/08 01:26:21;;;;;;;17.52;9.48;;;;;;;;;;5095079;28;20020;-63
2021/04/08 01:29:06;;;;;;;14.85;9.23;;;;;;;;;;5086083;28;20032;-64
2021/04/08 01:31:32;;;;;;;14.93;8.18;;;;;;;;;;5075156;28;20036;-63
2021/04/08 01:34:03;;;;;;;14.05;8.45;;;;;;;;;;5074778;28;20103;-64
2021/04/08 01:36:30;;;;;;;12.10;8.00;;;;;;;;;;5073703;28;20395;-63
2021/04/08 01:38:58;;;;;;;14.95;8.30;;;;;;;;;;5073653;28;20052;-62
2021/04/08 01:41:24;;;;;;;14.20;8.35;;;;;;;;;;5090351;28;20037;-61
2021/04/08 01:43:51;;;;;;;13.55;8.20;;;;;;;;;;5090285;28;20039;-62
2021/04/08 01:46:18;;;;;;;14.90;8.85;;;;;;;;;;5074644;28;20032;-62
2021/04/08 01:48:45;;;;;;;13.20;8.25;;;;;;;;;;5074591;28;20020;-62
2021/04/08 01:51:13;;;;;;;12.10;8.48;;;;;;;;;;5074544;28;20060;-62
2021/04/08 01:53:41;;;;;;;14.35;7.82;;;;;;;;;;5101487;27;20131;-63
2021/04/08 01:56:09;;;;;;;16.85;8.45;;;;;;;;;;5115171;28;20059;-62
2021/04/08 01:58:34;;;;;;;15.23;8.40;;;;;;;;;;5113778;28;20543;-62
2021/04/08 02:01:00;;;;;;;14.07;8.52;;;;;;;;;;5115004;28;20028;-62
2021/04/08 02:03:26;;;;;;;14.23;9.07;;;;;;;;;;5115176;28;20072;-62
2021/04/08 02:05:52;;;;;;;14.40;8.30;;;;;;;;;;5115144;28;20110;-62
2021/04/08 02:08:18;;;;;;;13.63;8.60;;;;;;;;;;5115019;28;20030;-62
2021/04/08 02:10:44;;;;;;;12.10;8.07;;;;;;;;;;5113596;28;20043;-62
2021/04/08 02:13:12;;;;;;;11.20;7.70;;;;;;;;;;5114869;28;20018;-63
2021/04/08 02:15:38;;;;;;;12.88;8.15;;;;;;;;;;5114780;28;20020;-63
2021/04/08 02:18:04;;;;;;;12.48;8.35;;;;;;;;;;5114898;28;20012;-63
2021/04/08 02:20:30;;;;;;;13.70;8.38;;;;;;;;;;5114575;28;20108;-63
2021/04/08 02:22:58;;;;;;;11.90;9.20;;;;;;;;;;5114666;28;20461;-64
2021/04/08 02:25:26;;;;;;;13.38;8.93;;;;;;;;;;5114754;28;20069;-63
2021/04/08 02:27:52;;;;;;;13.95;9.32;;;;;;;;;;5114169;28;20011;-63
2021/04/08 02:30:19;;;;;;;11.38;8.10;;;;;;;;;;5134826;27;20078;-63
2021/04/08 02:32:46;;;;;;;14.40;8.68;;;;;;;;;;5116455;27;20012;-63
2021/04/08 02:35:13;;;;;;;13.25;8.88;;;;;;;;;;5135059;27;20031;-63
2021/04/08 02:37:39;;;;;;;14.70;8.90;;;;;;;;;;5134827;27;20022;-63
2021/04/08 02:40:09;;;;;;;10.88;7.78;;;;;;;;;;5134902;27;20110;-63
2021/04/08 02:42:34;;;;;;;15.32;8.57;;;;;;;;;;5133500;27;20430;-63
2021/04/08 02:45:00;;;;;;;14.55;7.95;;;;;;;;;;5134965;27;20113;-63
2021/04/08 02:47:27;;;;;;;11.80;8.18;;;;;;;;;;5134606;27;20019;-63
2021/04/08 02:49:53;;;;;;;11.70;8.07;;;;;;;;;;5133562;27;20034;-63
2021/04/08 02:52:20;;;;;;;11.15;8.43;;;;;;;;;;5134486;27;20016;-63
2021/04/08 02:54:50;;;;;;;11.48;7.28;;;;;;;;;;5133890;27;20066;-63
2021/04/08 02:57:28;;;;;;;6.38;4.15;;;;;;;;;;5134962;27;20031;-63
2021/04/08 02:59:56;;;;;;;9.60;5.13;;;;;;;;;;5134813;27;20110;-63
2021/04/08 03:02:27;;;;;;;7.15;4.18;;;;;;;;;;5134703;27;20060;-64
2021/04/08 03:04:55;;;;;;;6.45;4.45;;;;;;;;;;5134611;27;20031;-64
2021/04/08 03:07:22;;;;;;;7.25;5.13;;;;;;;;;;5134451;27;20054;-64
2021/04/08 03:09:49;;;;;;;5.97;4.88;;;;;;;;;;5115962;28;20543;-64
2021/04/08 03:12:16;;;;;;;8.18;4.93;;;;;;;;;;5134465;28;20026;-63
2021/04/08 03:14:46;;;;;;;8.80;6.03;;;;;;;;;;5115869;28;20023;-64
2021/04/08 03:17:14;;;;;;;11.88;6.90;;;;;;;;;;5134521;28;20484;-63
2021/04/08 03:19:39;;;;;;;7.15;5.78;;;;;;;;;;5133108;28;20031;-64
2021/04/08 03:22:07;;;;;;;8.18;4.70;;;;;;;;;;5134547;28;20023;-64
2021/04/08 03:24:33;;;;;;;6.53;4.50;;;;;;;;;;5115850;28;20412;-63
2021/04/08 03:27:01;;;;;;;6.32;4.13;;;;;;;;;;5134204;28;20094;-63
2021/04/08 03:29:27;;;;;;;7.97;4.00;;;;;;;;;;5134407;28;20062;-63
2021/04/08 03:31:52;;;;;;;6.22;4.28;;;;;;;;;;5134275;28;20430;-64
2021/04/08 03:34:18;;;;;;;6.10;4.22;;;;;;;;;;5134333;28;20019;-64
2021/04/08 03:36:43;;;;;;;7.13;5.63;;;;;;;;;;5134329;28;20019;-64
2021/04/08 03:39:09;;;;;;;8.93;5.15;;;;;;;;;;5116456;27;20076;-64
2021/04/08 03:41:38;;;;;;;7.28;5.43;;;;;;;;;;5138223;27;20473;-63
2021/04/08 03:44:06;;;;;;;7.32;4.93;;;;;;;;;;5138581;27;20031;-64
2021/04/08 03:46:31;;;;;;;7.65;4.80;;;;;;;;;;5138438;27;20016;-65
2021/04/08 03:48:57;;;;;;;6.80;4.25;;;;;;;;;;5137977;27;20370;-64
2021/04/08 03:51:24;;;;;;;7.13;5.15;;;;;;;;;;5138368;27;20031;-64
2021/04/08 03:53:50;;;;;;;5.20;4.50;;;;;;;;;;5137469;27;20397;-65
2021/04/08 03:56:16;;;;;;;6.97;5.22;;;;;;;;;;5138506;27;20032;-64
2021/04/08 03:58:42;;;;;;;6.28;4.93;;;;;;;;;;5137853;27;20035;-64
2021/04/08 04:01:08;;;;;;;6.80;4.43;;;;;;;;;;5137849;27;20046;-63
2021/04/08 04:03:35;;;;;;;5.57;4.22;;;;;;;;;;5137863;27;20030;-63
2021/04/08 04:06:01;;;;;;;5.32;4.50;;;;;;;;;;5119428;27;20105;-63
2021/04/08 04:08:26;;;;;;;5.63;4.85;;;;;;;;;;5137811;27;20122;-64
2021/04/08 04:10:52;;;;;;;5.60;4.78;;;;;;;;;;5135400;27;20376;-64
2021/04/08 04:13:17;;;;;;;4.68;3.85;;;;;;;;;;5133998;27;20054;-64
2021/04/08 04:15:45;;;;;;;4.68;4.20;;;;;;;;;;5137317;27;20015;-64
2021/04/08 04:18:16;;;;;;;5.90;4.68;;;;;;;;;;5137635;27;20350;-64
2021/04/08 04:20:41;;;;;;;;;;;;;;;;;;5138190;27;20035;-62
2021/04/08 04:23:06;;;;;;;7.13;5.30;;;;;;;;;;5137680;27;19916;-62
2021/04/08 04:25:32;;;;;;;6.18;5.53;;;;;;;;;;5137518;27;20031;-62
2021/04/08 04:27:58;;;;;;;7.22;5.65;;;;;;;;;;5137228;27;20454;-62
2021/04/08 04:30:23;;;;;;;6.32;5.35;;;;;;;;;;5152827;27;20034;-62
2021/04/08 04:32:53;;;;;;;5.93;5.25;;;;;;;;;;5135589;27;20052;-64
2021/04/08 04:35:19;;;;;;;4.97;4.22;;;;;;;;;;5123635;27;20024;-64
2021/04/08 04:37:44;;;;;;;7.40;6.47;;;;;;;;;;5132749;27;20042;-64
2021/04/08 04:40:10;;;;;;;5.60;5.00;;;;;;;;;;5117654;27;20024;-63
2021/04/08 04:42:37;;;;;;;7.65;5.10;;;;;;;;;;5135777;27;20103;-64
2021/04/08 04:45:03;;;;;;;7.30;5.80;;;;;;;;;;5136919;27;20080;-64
2021/04/08 04:47:29;;;;;;;8.90;6.63;;;;;;;;;;5128348;27;20102;-64
2021/04/08 04:49:54;;;;;;;5.60;5.03;;;;;;;;;;5116124;27;20098;-64
2021/04/08 04:52:21;;;;;;;6.65;5.97;;;;;;;;;;5115583;28;20375;-65
2021/04/08 04:54:46;;;;;;;5.60;4.97;;;;;;;;;;5116103;28;20044;-64
2021/04/08 04:57:12;;;;;;;6.85;4.80;;;;;;;;;;5116514;28;20035;-64
2021/04/08 04:59:37;;;;;;;5.32;4.80;;;;;;;;;;5116319;28;20032;-64
2021/04/08 05:02:03;;;;;;;5.18;4.70;;;;;;;;;;5116198;28;20054;-64
2021/04/08 05:04:28;;;;;;;6.40;5.03;;;;;;;;;;5116344;28;20051;-64
2021/04/08 05:06:54;;;;;;;6.93;6.18;;;;;;;;;;5116269;28;20099;-64
2021/04/08 05:09:20;;;;;;;4.60;4.20;;;;;;;;;;5116037;28;20503;-65
2021/04/08 05:11:46;;;;;;;4.28;3.90;;;;;;;;;;5134419;27;20076;-64
2021/04/08 05:14:12;;;;;;;6.25;5.45;;;;;;;;;;5134986;27;20015;-64
2021/04/08 05:16:37;;;;;;;5.90;4.90;;;;;;;;;;5134719;27;20015;-64
2021/04/08 05:19:03;;;;;;;5.45;4.95;;;;;;;;;;5134784;27;20054;-64
2021/04/08 05:21:28;;;;;;;4.22;3.78;;;;;;;;;;5134818;27;20060;-63
2021/04/08 05:23:54;;;;;;;6.30;4.93;;;;;;;;;;5134606;27;20100;-63
2021/04/08 05:26:20;;;;;;;5.43;4.80;;;;;;;;;;5134556;27;20019;-64
2021/04/08 05:28:46;;;;;;;6.60;6.00;;;;;;;;;;5134576;27;20042;-64
2021/04/08 05:31:11;;;;;;;6.10;5.20;;;;;;;;;;5134439;27;20118;-64
2021/04/08 05:33:37;;;;;;;6.20;5.57;;;;;;;;;;5142044;27;20031;-64
2021/04/08 05:36:02;;;;;;;6.82;6.18;;;;;;;;;;5134405;27;20067;-63
2021/04/08 05:38:28;;;;;;;6.18;5.30;;;;;;;;;;5134289;27;20019;-64
2021/04/08 05:40:53;;;;;;;7.07;5.47;;;;;;;;;;5134358;27;20023;-63
2021/04/08 05:43:22;;;;;;;8.10;7.18;;;;;;;;;;5141569;27;20031;-64
2021/04/08 05:45:47;;;;;;;9.60;7.53;;;;;;;;;;5124427;27;20042;-64
2021/04/08 05:48:13;;;;;;;7.25;5.95;;;;;;;;;;5135681;27;20031;-64
2021/04/08 05:50:39;;;;;;;7.88;6.68;;;;;;;;;;5136006;27;20110;-64
2021/04/08 05:53:05;;;;;;;8.18;5.95;;;;;;;;;;5117437;27;20067;-65
2021/04/08 05:55:30;;;;;;;11.82;6.97;;;;;;;;;;5135712;27;20481;-64
2021/04/08 05:57:56;;;;;;;8.65;6.18;;;;;;;;;;5135609;27;20029;-64
2021/04/08 06:00:22;;;;;;;7.05;5.50;;;;;;;;;;5135912;27;20098;-64
2021/04/08 06:02:48;;;;;;;6.10;5.07;;;;;;;;;;5135625;27;20115;-64
2021/04/08 06:05:13;;;;;;;5.88;4.25;;;;;;;;;;5135370;27;20050;-64
2021/04/08 06:07:42;;;;;;;6.28;5.40;;;;;;;;;;5134834;27;20109;-64
2021/04/08 06:10:08;;;;;;;5.07;4.50;;;;;;;;;;5135516;27;20361;-64
2021/04/08 06:12:34;;;;;;;6.63;5.85;;;;;;;;;;5135376;27;20034;-64
2021/04/08 06:14:59;;;;;;;7.28;6.32;;;;;;;;;;5135176;27;20023;-64
2021/04/08 06:17:25;;;;;;;6.68;5.97;;;;;;;;;;5134054;27;20027;-65
2021/04/08 06:19:50;;;;;;;6.53;5.32;;;;;;;;;;5135436;27;20477;-64
2021/04/08 06:22:16;;;;;;;8.27;6.43;;;;;;;;;;5133882;27;20023;-64
2021/04/08 06:24:41;;;;;;;7.13;5.75;;;;;;;;;;5135294;27;20106;-64
2021/04/08 06:27:07;;;;;;;7.40;6.57;;;;;;;;;;5135250;27;20402;-64
2021/04/08 06:29:33;;;;;;;5.30;4.80;;;;;;;;;;5135180;27;20030;-64
2021/04/08 06:31:58;;;;;;;6.22;5.60;;;;;;;;;;5135068;27;20027;-64
2021/04/08 06:34:24;;;;;;;7.55;5.43;;;;;;;;;;5134859;27;20046;-64
2021/04/08 06:36:49;;;;;;;5.43;4.97;;;;;;;;;;5134681;27;20035;-64
2021/04/08 06:39:15;;;;;;;6.03;5.40;;;;;;;;;;5129179;27;20015;-64
2021/04/08 06:41:41;;;;;;;6.03;4.68;;;;;;;;;;5130876;27;20055;-63
2021/04/08 06:44:08;;;;;;;6.82;4.78;;;;;;;;;;5113554;27;20022;-63
2021/04/08 06:46:37;;;;;;;6.05;5.45;;;;;;;;;;5129739;27;20061;-63
2021/04/08 06:49:12;;;;;;;5.53;4.95;;;;;;;;;;5124527;27;20031;-63
2021/04/08 06:51:41;;;;;;;6.90;5.05;;;;;;;;;;5109422;27;20027;-63
2021/04/08 06:54:08;;;;;;;6.00;5.05;;;;;;;;;;5129531;27;20039;-63
2021/04/08 06:56:34;;;;;;;8.13;5.32;;;;;;;;;;5111739;28;20023;-63
2021/04/08 06:58:59;;;;;;;4.82;4.35;;;;;;;;;;5114149;28;20422;-63
2021/04/08 07:01:25;;;;;;;5.47;4.55;;;;;;;;;;5113930;28;20032;-63
2021/04/08 07:03:52;;;;;;;6.65;5.68;;;;;;;;;;5107595;28;20024;-63
2021/04/08 07:06:17;;;;;;;5.72;5.13;;;;;;;;;;5105208;28;20118;-63
2021/04/08 07:08:44;;;;;;;5.80;5.28;;;;;;;;;;5107920;28;20144;-63
2021/04/08 07:11:10;;;;;;;7.43;6.00;;;;;;;;;;5125111;27;20077;-63
2021/04/08 07:13:35;;;;;;;4.15;3.75;;;;;;;;;;5109505;28;20016;-62
2021/04/08 07:16:01;;;;;;;4.88;4.07;;;;;;;;;;5110371;28;20347;-63
2021/04/08 07:18:26;;;;;;;4.97;4.32;;;;;;;;;;5113969;28;20015;-63
2021/04/08 07:20:53;;;;;;;4.32;4.00;;;;;;;;;;5113677;28;20389;-63
2021/04/08 07:23:18;;;;;;;5.97;4.85;;;;;;;;;;5113831;28;20118;-63
2021/04/08 07:25:59;;;;;;;4.85;4.28;;;;;;;;;;5113867;28;20048;-63
2021/04/08 07:28:32;;;;;;;5.93;3.97;;;;;;;;;;5113701;28;20032;-63
2021/04/08 07:31:18;;;;;;;8.07;3.50;;;;;;;;;;5113642;28;20028;-63
2021/04/08 07:33:43;;;;;;;2.53;2.33;;;;;;;;;;5112848;28;20031;-63
2021/04/08 07:36:09;;;;;;;2.65;2.10;;;;;;;;;;5113712;28;20020;-63
2021/04/08 07:38:49;;;;;;;5.22;3.20;;;;;;;;;;5113835;28;20027;-63
2021/04/08 07:41:29;;;;;;;4.15;2.35;;;;;;;;;;5113851;28;20106;-63
2021/04/08 07:44:05;;;;;;;4.43;2.15;;;;;;;;;;5113637;28;20058;-63
2021/04/08 07:46:31;;;;;;;6.22;3.03;;;;;;;;;;5113579;28;20106;-62
2021/04/08 07:48:57;;;;;;;4.85;2.78;;;;;;;;;;5113723;28;20363;-62
2021/04/08 07:51:29;;;;;;;5.53;3.38;;;;;;;;;;5112344;28;20031;-61
2021/04/08 07:54:12;;;;;;;6.22;3.53;;;;;;;;;;5118710;28;20496;-61
2021/04/08 07:56:38;;;;;;;3.22;2.70;;;;;;;;;;5134417;28;20034;-61
2021/04/08 07:59:22;;;;;;;4.85;3.33;;;;;;;;;;5133981;28;20016;-61
2021/04/08 08:01:49;;;;;;;4.13;2.67;;;;;;;;;;5133740;28;20392;-61
2021/04/08 08:04:18;;;;;;;7.25;4.03;;;;;;;;;;5132285;28;20024;-62
2021/04/08 08:06:44;;;;;;;4.47;3.05;;;;;;;;;;5132755;28;20369;-61
2021/04/08 08:09:14;;;;;;;3.75;2.95;;;;;;;;;;5133904;28;20040;-61
2021/04/08 08:11:42;;;;;;;5.57;2.97;;;;;;;;;;5133524;28;20114;-61
2021/04/08 08:14:10;;;;;;;5.15;3.60;;;;;;;;;;5128704;28;20482;-61
2021/04/08 08:16:37;;;;;;;3.70;3.00;;;;;;;;;;5133700;27;20019;-61
2021/04/08 08:19:03;;;;;;;5.18;3.42;;;;;;;;;;5133996;27;20007;-61
2021/04/08 08:21:29;;;;;;;5.20;3.72;;;;;;;;;;5133533;28;20058;-61
2021/04/08 08:23:55;;;;;;;6.57;3.88;;;;;;;;;;5133527;27;20459;-61
2021/04/08 08:26:36;;;;;;;6.28;4.40;;;;;;;;;;5115897;27;20495;-61
2021/04/08 08:29:13;;;;;;;5.47;3.13;;;;;;;;;;5137166;27;20031;-61
2021/04/08 08:31:51;;;;;;;5.30;3.70;;;;;;;;;;5137246;27;20453;-61
2021/04/08 08:34:18;;;;;;;5.72;4.35;;;;;;;;;;5137499;27;20039;-61
2021/04/08 08:36:46;;;;;;;9.93;5.20;;;;;;;;;;5137295;27;20011;-61
2021/04/08 08:39:13;;;;;;;7.18;4.07;;;;;;;;;;5136023;27;20095;-62
2021/04/08 08:41:39;;;;;;;8.20;4.75;;;;;;;;;;5118469;27;20066;-61
2021/04/08 08:44:07;;;;;;;4.40;3.63;;;;;;;;;;5137432;27;20031;-61
2021/04/08 08:46:36;;;;;;;6.93;4.38;;;;;;;;;;5137287;27;20011;-61
2021/04/08 08:49:02;;;;;;;7.35;4.13;;;;;;;;;;5137155;27;20027;-61
2021/04/08 08:51:27;;;;;;;8.43;4.10;;;;;;;;;;5118545;27;20426;-70
2021/04/08 08:53:54;;;;;;;5.72;3.67;;;;;;;;;;5136499;27;20042;-68
2021/04/08 08:56:22;;;;;;;4.15;3.22;;;;;;;;;;5118869;27;20118;-68
2021/04/08 08:58:48;;;;;;;4.57;3.42;;;;;;;;;;5136532;27;20023;-67
2021/04/08 09:01:13;;;;;;;5.55;3.45;;;;;;;;;;5137017;27;20023;-67
2021/04/08 09:03:39;;;;;;;3.88;2.90;;;;;;;;;;5136710;27;20099;-67
2021/04/08 09:06:06;;;;;;;2.20;2.10;;;;;;;;;;5136780;27;20031;-67
2021/04/08 09:08:34;;;;;;;1.33;1.23;;;;;;;;;;5136917;27;20019;-68
2021/04/08 09:10:59;;;;;;;4.82;3.30;;;;;;;;;;5136391;27;20027;-67
2021/04/08 09:13:25;;;;;;;6.18;3.35;;;;;;;;;;5136317;27;20016;-68
2021/04/08 09:15:51;;;;;;;5.53;3.05;;;;;;;;;;5118039;27;20065;-67
2021/04/08 09:18:22;;;;;;;6.00;3.45;;;;;;;;;;5134506;27;20054;-68
2021/04/08 09:20:48;;;;;;;4.22;2.78;;;;;;;;;;5136419;27;20035;-67
2021/04/08 09:23:17;;;;;;;2.80;2.30;;;;;;;;;;5136087;27;20372;-68
2021/04/08 09:25:46;;;;;;;4.07;2.92;;;;;;;;;;5136032;27;20023;-68
2021/04/08 09:28:13;;;;;;;3.55;2.97;;;;;;;;;;5135152;27;20026;-67
2021/04/08 09:31:23;;;;;;;5.05;2.40;;;;;;;;;;5135942;27;20444;-68
2021/04/08 09:33:43;;;;;;;3.10;2.08;;;;;;;;;;5133070;27;20049;-68
2021/04/08 09:36:18;;;;;;;2.60;1.65;;;;;;;;;;5136061;27;20024;-68
2021/04/08 09:38:43;;;;;;;3.45;2.00;;;;;;;;;;5135213;27;20033;-67
2021/04/08 09:41:10;;;;;;;2.25;1.52;;;;;;;;;;5121808;27;20016;-63
2021/04/08 09:43:36;;;;;;;2.33;1.52;;;;;;;;;;5135599;27;20038;-62
2021/04/08 09:46:04;;;;;;;3.85;1.80;;;;;;;;;;5134316;27;20123;-63
2021/04/08 09:48:51;;;;;;;2.45;1.80;;;;;;;;;;5151533;27;20447;-63
2021/04/08 09:51:24;;;;;;;3.05;1.75;;;;;;;;;;5135332;27;20034;-63
2021/04/08 09:53:54;;;;;;;2.08;1.30;;;;;;;;;;5134738;27;20039;-63
2021/04/08 09:56:38;;;;;;;2.40;1.20;;;;;;;;;;5135456;27;20043;-63
2021/04/08 09:59:04;;;;;;;1.80;1.23;;;;;;;;;;5135335;27;20469;-63
2021/04/08 10:01:29;;;;;;;1.45;1.20;;;;;;;;;;5135779;27;20023;-63
2021/04/08 10:03:55;;;;;;;4.63;2.25;;;;;;;;;;5135472;27;20076;-63
2021/04/08 10:06:21;;;;;;;5.93;3.75;;;;;;;;;;5135486;27;20023;-62
2021/04/08 10:08:47;;;;;;;11.43;4.07;;;;;;;;;;5135372;27;20054;-62
2021/04/08 10:11:13;;;;;;;3.90;1.92;;;;;;;;;;5117089;27;20023;-63
2021/04/08 10:13:41;;;;;;;3.35;1.55;;;;;;;;;;5135297;27;20026;-63
2021/04/08 10:16:10;;;;;;;2.80;1.60;;;;;;;;;;5135319;27;20023;-62
2021/04/08 10:18:37;;;;;;;6.85;3.65;;;;;;;;;;5135218;27;20031;-62
2021/04/08 10:21:04;;;;;;;4.00;2.38;;;;;;;;;;5135045;27;20103;-63
2021/04/08 10:23:32;;;;;;;1.80;1.40;;;;;;;;;;5135370;27;20023;-63
2021/04/08 10:26:02;;;;;;;2.05;1.20;;;;;;;;;;5133769;27;20411;-63
2021/04/08 10:28:36;;;;;;;2.25;1.60;;;;;;;;;;5135334;27;20023;-63
2021/04/08 10:31:14;;;;;;;2.88;1.50;;;;;;;;;;5135015;27;20108;-63
2021/04/08 10:33:40;;;;;;;2.72;1.23;;;;;;;;;;5135232;27;20476;-63
2021/04/08 10:36:05;;;;;;;2.22;1.23;;;;;;;;;;5134919;27;20019;-63
2021/04/08 10:38:30;;;;;;;2.15;1.55;;;;;;;;;;5134159;27;20034;-63
2021/04/08 10:40:57;;;;;;;2.95;1.75;;;;;;;;;;5134509;27;20019;-63
2021/04/08 10:43:23;;;;;;;3.88;1.92;;;;;;;;;;5134553;27;20042;-63
2021/04/08 10:45:50;;;;;;;2.40;1.90;;;;;;;;;;5132885;27;20480;-63
2021/04/08 10:48:17;;;;;;;2.42;2.08;;;;;;;;;;5150352;27;20425;-64
2021/04/08 10:50:42;;;;;;;2.38;1.90;;;;;;;;;;5133814;27;20049;-64
2021/04/08 10:53:08;;;;;;;1.92;1.83;;;;;;;;;;5134355;27;20019;-64
2021/04/08 10:55:34;;;;;;;2.53;1.77;;;;;;;;;;5134173;27;20042;-64
2021/04/08 10:58:00;;;;;;;2.10;1.75;;;;;;;;;;5134291;27;20046;-64
2021/04/08 11:00:25;;;;;;;2.83;1.52;;;;;;;;;;5134191;27;20103;-64
2021/04/08 11:02:51;;;;;;;2.33;1.83;;;;;;;;;;5134193;27;20027;-64
2021/04/08 11:05:21;;;;;;;2.65;2.00;;;;;;;;;;5134237;27;20571;-64
2021/04/08 11:07:49;;;;;;;2.30;1.90;;;;;;;;;;5134206;27;20063;-64
2021/04/08 11:10:40;;;;;;;6.78;3.38;;;;;;;;;;5134192;27;20324;-65
2021/04/08 11:13:06;;;;;;;8.18;6.57;;;;;;;;;;5128506;27;20047;-64
2021/04/08 11:15:35;;;;;;;4.93;3.25;;;;;;;;;;5134220;27;20527;-64
2021/04/08 11:18:06;;;;;;;8.20;3.95;;;;;;;;;;5134150;27;20055;-64
2021/04/08 11:20:36;;;;;;;20.88;12.02;;;;;;;;;;5134199;28;20027;-64
2021/04/08 11:23:03;;;;;;;16.65;4.82;;;;;;;;;;5134159;28;20097;-64
2021/04/08 11:25:30;;;;;;;38.08;21.23;;;;;;;;;;5134010;27;20019;-63
2021/04/08 11:27:56;;;;;;;10.23;4.78;;;;;;;;;;5149923;27;20385;-63
2021/04/08 11:30:25;;;;;;;18.92;11.07;;;;;;;;;;5134104;27;20114;-63
2021/04/08 11:32:52;;;;;;;7.45;5.72;;;;;;;;;;5133948;28;20024;-63
2021/04/08 11:35:23;;;;;;;6.35;5.07;;;;;;;;;;5132884;28;20247;-63
2021/04/08 11:37:49;;;;;;;4.60;3.10;;;;;;;;;;5133941;28;20023;-63
2021/04/08 11:40:19;;;;;;;5.90;2.80;;;;;;;;;;5133833;27;20088;-63
2021/04/08 11:42:44;;;;;;;3.00;2.60;;;;;;;;;;5133874;27;20033;-64
2021/04/08 11:45:30;;;;;;;2.60;2.00;;;;;;;;;;5133160;27;20098;-64
2021/04/08 11:48:06;;;;;;;1.65;1.25;;;;;;;;;;5149234;27;20039;-63
2021/04/08 11:50:33;;;;;;;4.07;2.53;;;;;;;;;;5133180;28;20023;-64
2021/04/08 11:52:59;;;;;;;2.63;2.35;;;;;;;;;;5133441;27;20376;-64
2021/04/08 11:55:33;;;;;;;4.20;2.10;;;;;;;;;;5133154;28;20076;-63
2021/04/08 11:57:58;;;;;;;3.35;2.10;;;;;;;;;;5133529;28;20028;-63
2021/04/08 12:00:26;;;;;;;2.83;1.70;;;;;;;;;;5134006;27;20023;-64
2021/04/08 12:02:52;;;;;;;2.55;1.48;;;;;;;;;;5137650;27;20028;-63
2021/04/08 12:05:24;;;;;;;3.80;2.03;;;;;;;;;;5137311;27;20034;-63
2021/04/08 12:07:50;;;;;;;3.92;2.88;;;;;;;;;;5137169;27;20030;-63
2021/04/08 12:10:24;;;;;;;3.42;2.85;;;;;;;;;;5137331;27;20015;-63
2021/04/08 12:12:57;;;;;;;2.00;1.67;;;;;;;;;;5137145;27;20448;-63
2021/04/08 12:15:39;;;;;;;2.75;1.60;;;;;;;;;;5137196;27;20027;-63
2021/04/08 12:18:11;;;;;;;1.65;1.30;;;;;;;;;;5137111;27;20114;-63
2021/04/08 12:20:37;;;;;;;3.67;1.98;;;;;;;;;;5137064;27;20027;-63
2021/04/08 12:23:09;;;;;;;3.50;2.33;;;;;;;;;;5137153;27;20380;-63
2021/04/08 12:25:42;;;;;;;2.60;1.60;;;;;;;;;;5136897;27;20035;-63
2021/04/08 12:28:07;;;;;;;4.63;1.98;;;;;;;;;;5135801;27;20035;-63
2021/04/08 12:30:33;;;;;;;3.58;1.95;;;;;;;;;;5136983;27;20018;-62
2021/04/08 12:32:58;;;;;;;3.15;2.13;;;;;;;;;;5152741;27;20035;-63
2021/04/08 12:35:24;;;;;;;4.00;2.17;;;;;;;;;;5136837;27;20098;-63
2021/04/08 12:37:50;;;;;;;1.70;1.60;;;;;;;;;;5136702;27;20119;-63
2021/04/08 12:40:16;;;;;;;2.53;1.60;;;;;;;;;;5136657;27;20026;-63
2021/04/08 12:42:43;;;;;;;3.65;1.90;;;;;;;;;;5136575;27;20023;-63
2021/04/08 12:45:10;;;;;;;3.85;1.40;;;;;;;;;;5136722;27;20030;-63
2021/04/08 12:47:36;;;;;;;3.13;1.75;;;;;;;;;;5135311;27;20030;-63
2021/04/08 12:50:02;;;;;;;2.40;2.17;;;;;;;;;;5136568;27;20023;-63
2021/04/08 12:52:28;;;;;;;2.72;1.98;;;;;;;;;;5152501;27;20035;-63
2021/04/08 12:54:53;;;;;;;1.92;1.52;;;;;;;;;;5135592;27;20047;-63
2021/04/08 12:57:19;;;;;;;2.05;1.40;;;;;;;;;;5152431;27;20034;-62
2021/04/08 12:59:44;;;;;;;1.52;1.40;;;;;;;;;;5136314;27;20424;-63
2021/04/08 13:02:10;;;;;;;2.10;1.85;;;;;;;;;;5136289;27;20038;-63
2021/04/08 13:04:35;;;;;;;3.15;1.42;;;;;;;;;;5136211;27;20030;-63
2021/04/08 13:07:01;;;;;;;2.70;1.92;;;;;;;;;;5135875;27;20034;-63
2021/04/08 13:09:26;;;;;;;2.92;1.98;;;;;;;;;;5151864;27;20495;-63
2021/04/08 13:11:58;;;;;;;3.15;1.85;;;;;;;;;;5133878;27;20106;-63
2021/04/08 13:14:26;;;;;;;3.30;2.17;;;;;;;;;;5135988;27;20525;-63
2021/04/08 13:16:51;;;;;;;2.40;1.73;;;;;;;;;;5136016;27;20015;-63
2021/04/08 13:19:17;;;;;;;3.10;1.83;;;;;;;;;;5134673;27;20444;-63
2021/04/08 13:21:42;;;;;;;1.30;1.15;;;;;;;;;;5136028;27;20023;-63
2021/04/08 13:24:08;;;;;;;1.50;1.35;;;;;;;;;;5135945;27;20031;-63
2021/04/08 13:26:33;;;;;;;1.33;1.23;;;;;;;;;;5135676;27;20027;-63
2021/04/08 13:28:59;;;;;;;1.50;1.25;;;;;;;;;;5135842;27;20148;-63
2021/04/08 13:31:24;;;;;;;2.63;1.42;;;;;;;;;;5151791;27;20106;-63
2021/04/08 13:33:50;;;;;;;2.03;1.38;;;;;;;;;;5135460;27;20019;-63
2021/04/08 13:36:15;;;;;;;3.13;1.90;;;;;;;;;;5135648;27;20015;-63
2021/04/08 13:38:41;;;;;;;4.28;2.40;;;;;;;;;;5136020;27;20130;-63
2021/04/08 13:41:06;;;;;;;2.03;1.60;;;;;;;;;;5136115;27;20007;-63
2021/04/08 13:43:32;;;;;;;2.45;1.80;;;;;;;;;;5135987;27;20525;-62
2021/04/08 13:45:58;;;;;;;1.35;1.25;;;;;;;;;;5135833;27;20026;-62
2021/04/08 13:48:23;;;;;;;1.30;1.20;;;;;;;;;;5135646;27;20034;-63
2021/04/08 13:50:49;;;;;;;2.60;1.40;;;;;;;;;;5135888;27;20027;-62
2021/04/08 13:53:14;;;;;;;2.22;1.45;;;;;;;;;;5134899;27;20023;-62
2021/04/08 13:55:40;;;;;;;2.03;1.73;;;;;;;;;;5135487;27;20496;-62
2021/04/08 13:58:06;;;;;;;2.95;1.73;;;;;;;;;;5117277;27;20061;-62
2021/04/08 14:00:39;;;;;;;2.20;1.80;;;;;;;;;;5135466;27;20039;-62
2021/04/08 14:03:04;;;;;;;2.70;1.92;;;;;;;;;;5133877;27;20027;-62
2021/04/08 14:05:30;;;;;;;2.00;1.75;;;;;;;;;;5133462;27;20038;-62
2021/04/08 14:07:55;;;;;;;3.45;2.05;;;;;;;;;;5135103;27;20122;-62
2021/04/08 14:10:22;;;;;;;2.17;2.00;;;;;;;;;;5133782;27;20030;-62
2021/04/08 14:12:49;;;;;;;2.15;1.90;;;;;;;;;;5134838;27;20102;-62
2021/04/08 14:15:14;;;;;;;3.28;1.83;;;;;;;;;;5134933;27;20103;-63
2021/04/08 14:17:41;;;;;;;3.30;2.70;;;;;;;;;;5133681;27;20500;-62
2021/04/08 14:20:07;;;;;;;5.10;3.30;;;;;;;;;;5133245;27;20082;-62
2021/04/08 14:22:33;;;;;;;2.05;1.88;;;;;;;;;;5134501;27;20102;-62
2021/04/08 14:24:58;;;;;;;2.42;1.23;;;;;;;;;;5134919;27;20023;-62
2021/04/08 14:27:24;;;;;;;2.75;1.45;;;;;;;;;;5134826;27;20480;-62
2021/04/08 14:29:50;;;;;;;2.55;1.90;;;;;;;;;;5134848;27;20022;-62
2021/04/08 14:32:15;;;;;;;2.05;1.85;;;;;;;;;;5134720;27;20031;-62
2021/04/08 14:34:41;;;;;;;1.10;1.00;;;;;;;;;;5133561;27;20091;-62
2021/04/08 14:37:07;;;;;;;2.08;1.60;;;;;;;;;;5134682;27;20027;-62
2021/04/08 14:39:33;;;;;;;1.58;1.48;;;;;;;;;;5134571;27;20064;-62